sensor_id;sensor_type;location;lat;lon;timestamp;P1;durP1;ratioP1;P2;durP2;ratioP2
41480;SDS011;27217;51.220;5.308;2023-07-28T00:02:07;0.00;;;0.00;;
41480;SDS011;27217;51.220;5.308;2023-07-28T00:04:39;0.00;;;0.00;;
41480;SDS011;27217;51.220;5.308;2023-07-28T00:07:04;0.00;;;0.00;;
41480;SDS011;27217;51.220;5.308;2023-07-28T00:09:30;0.03;;;0.03;;
41480;SDS011;27217;51.220;5.308;2023-07-28T00:11:57;0.95;;;0.82;;
41480;SDS011;27217;51.220;5.308;2023-07-28T00:14:24;0.10;;;0.10;;
41480;SDS011;27217;51.220;5.308;2023-07-28T00:16:54;0.00;;;0.00;;
41480;SDS011;27217;51.220;5.308;2023-07-28T00:19:35;0.00;;;0.00;;
41480;SDS011;27217;51.220;5.308;2023-07-28T00:22:01;0.15;;;0.15;;
41480;SDS011;27217;51.220;5.308;2023-07-28T00:24:27;0.00;;;0.00;;
41480;SDS011;27217;51.220;5.308;2023-07-28T00:26:53;0.00;;;0.00;;
41480;SDS011;27217;51.220;5.308;2023-07-28T00:29:19;0.28;;;0.28;;
41480;SDS011;27217;51.220;5.308;2023-07-28T00:31:45;0.25;;;0.20;;
41480;SDS011;27217;51.220;5.308;2023-07-28T00:34:11;0.10;;;0.10;;
41480;SDS011;27217;51.220;5.308;2023-07-28T00:36:37;0.13;;;0.13;;
41480;SDS011;27217;51.220;5.308;2023-07-28T00:39:03;0.17;;;0.17;;
41480;SDS011;27217;51.220;5.308;2023-07-28T00:41:29;0.17;;;0.17;;
41480;SDS011;27217;51.220;5.308;2023-07-28T00:43:54;0.20;;;0.20;;
41480;SDS011;27217;51.220;5.308;2023-07-28T00:46:21;0.40;;;0.40;;
41480;SDS011;27217;51.220;5.308;2023-07-28T00:48:46;0.30;;;0.22;;
41480;SDS011;27217;51.220;5.308;2023-07-28T00:51:12;2.90;;;0.57;;
41480;SDS011;27217;51.220;5.308;2023-07-28T00:53:38;0.00;;;0.00;;
41480;SDS011;27217;51.220;5.308;2023-07-28T00:56:06;0.05;;;0.05;;
41480;SDS011;27217;51.220;5.308;2023-07-28T00:58:32;0.43;;;0.28;;
41480;SDS011;27217;51.220;5.308;2023-07-28T01:00:59;0.28;;;0.28;;
41480;SDS011;27217;51.220;5.308;2023-07-28T01:03:25;0.10;;;0.10;;
41480;SDS011;27217;51.220;5.308;2023-07-28T01:06:05;0.00;;;0.00;;
41480;SDS011;27217;51.220;5.308;2023-07-28T01:08:49;0.10;;;0.10;;
41480;SDS011;27217;51.220;5.308;2023-07-28T01:11:24;0.17;;;0.17;;
41480;SDS011;27217;51.220;5.308;2023-07-28T01:13:50;0.30;;;0.30;;
41480;SDS011;27217;51.220;5.308;2023-07-28T01:16:16;0.10;;;0.10;;
41480;SDS011;27217;51.220;5.308;2023-07-28T01:18:42;0.00;;;0.00;;
41480;SDS011;27217;51.220;5.308;2023-07-28T01:21:09;0.35;;;0.20;;
41480;SDS011;27217;51.220;5.308;2023-07-28T01:26:47;0.20;;;0.20;;
41480;SDS011;27217;51.220;5.308;2023-07-28T01:29:15;0.68;;;0.15;;
41480;SDS011;27217;51.220;5.308;2023-07-28T01:31:41;0.15;;;0.15;;
41480;SDS011;27217;51.220;5.308;2023-07-28T01:34:07;0.32;;;0.25;;
41480;SDS011;27217;51.220;5.308;2023-07-28T01:36:33;0.00;;;0.00;;
41480;SDS011;27217;51.220;5.308;2023-07-28T01:38:59;0.00;;;0.00;;
41480;SDS011;27217;51.220;5.308;2023-07-28T01:41:24;0.00;;;0.00;;
41480;SDS011;27217;51.220;5.308;2023-07-28T01:43:51;0.20;;;0.20;;
41480;SDS011;27217;51.220;5.308;2023-07-28T01:46:20;0.00;;;0.00;;
41480;SDS011;27217;51.220;5.308;2023-07-28T01:48:46;4.15;;;1.17;;
41480;SDS011;27217;51.220;5.308;2023-07-28T01:51:12;0.20;;;0.20;;
41480;SDS011;27217;51.220;5.308;2023-07-28T01:53:38;0.20;;;0.20;;
41480;SDS011;27217;51.220;5.308;2023-07-28T01:56:03;0.10;;;0.10;;
41480;SDS011;27217;51.220;5.308;2023-07-28T01:58:30;0.00;;;0.00;;
41480;SDS011;27217;51.220;5.308;2023-07-28T02:00:56;0.20;;;0.20;;
41480;SDS011;27217;51.220;5.308;2023-07-28T02:03:21;0.38;;;0.30;;
41480;SDS011;27217;51.220;5.308;2023-07-28T02:05:47;0.00;;;0.00;;
41480;SDS011;27217;51.220;5.308;2023-07-28T02:08:13;0.00;;;0.00;;
41480;SDS011;27217;51.220;5.308;2023-07-28T02:10:40;0.08;;;0.08;;
41480;SDS011;27217;51.220;5.308;2023-07-28T02:13:05;0.10;;;0.10;;
41480;SDS011;27217;51.220;5.308;2023-07-28T02:15:31;0.10;;;0.10;;
41480;SDS011;27217;51.220;5.308;2023-07-28T02:17:57;0.17;;;0.17;;
41480;SDS011;27217;51.220;5.308;2023-07-28T02:20:23;0.45;;;0.45;;
41480;SDS011;27217;51.220;5.308;2023-07-28T02:22:49;0.17;;;0.17;;
41480;SDS011;27217;51.220;5.308;2023-07-28T02:25:15;0.08;;;0.08;;
41480;SDS011;27217;51.220;5.308;2023-07-28T02:27:41;0.47;;;0.47;;
41480;SDS011;27217;51.220;5.308;2023-07-28T02:30:07;0.10;;;0.10;;
41480;SDS011;27217;51.220;5.308;2023-07-28T02:32:34;0.10;;;0.10;;
41480;SDS011;27217;51.220;5.308;2023-07-28T02:34:59;0.20;;;0.20;;
41480;SDS011;27217;51.220;5.308;2023-07-28T02:37:25;0.68;;;0.68;;
41480;SDS011;27217;51.220;5.308;2023-07-28T02:39:51;0.00;;;0.00;;
41480;SDS011;27217;51.220;5.308;2023-07-28T02:42:17;0.00;;;0.00;;
41480;SDS011;27217;51.220;5.308;2023-07-28T02:44:43;0.35;;;0.35;;
41480;SDS011;27217;51.220;5.308;2023-07-28T02:47:09;0.20;;;0.20;;
41480;SDS011;27217;51.220;5.308;2023-07-28T02:49:35;1.17;;;0.40;;
41480;SDS011;27217;51.220;5.308;2023-07-28T02:52:01;0.65;;;0.50;;
41480;SDS011;27217;51.220;5.308;2023-07-28T02:54:28;0.15;;;0.15;;
41480;SDS011;27217;51.220;5.308;2023-07-28T02:56:54;0.10;;;0.10;;
41480;SDS011;27217;51.220;5.308;2023-07-28T02:59:21;0.50;;;0.50;;
41480;SDS011;27217;51.220;5.308;2023-07-28T03:01:48;0.70;;;0.70;;
41480;SDS011;27217;51.220;5.308;2023-07-28T03:04:16;0.30;;;0.30;;
41480;SDS011;27217;51.220;5.308;2023-07-28T03:06:44;0.57;;;0.43;;
41480;SDS011;27217;51.220;5.308;2023-07-28T03:09:10;1.85;;;0.40;;
41480;SDS011;27217;51.220;5.308;2023-07-28T03:11:36;1.40;;;0.73;;
41480;SDS011;27217;51.220;5.308;2023-07-28T03:14:02;0.25;;;0.25;;
41480;SDS011;27217;51.220;5.308;2023-07-28T03:16:28;0.17;;;0.17;;
41480;SDS011;27217;51.220;5.308;2023-07-28T03:18:54;0.10;;;0.10;;
41480;SDS011;27217;51.220;5.308;2023-07-28T03:21:20;0.30;;;0.30;;
41480;SDS011;27217;51.220;5.308;2023-07-28T03:23:46;0.30;;;0.30;;
41480;SDS011;27217;51.220;5.308;2023-07-28T03:26:13;0.13;;;0.13;;
41480;SDS011;27217;51.220;5.308;2023-07-28T03:28:39;0.98;;;0.90;;
41480;SDS011;27217;51.220;5.308;2023-07-28T03:31:05;0.47;;;0.47;;
41480;SDS011;27217;51.220;5.308;2023-07-28T03:33:30;0.30;;;0.30;;
41480;SDS011;27217;51.220;5.308;2023-07-28T03:35:57;0.03;;;0.03;;
41480;SDS011;27217;51.220;5.308;2023-07-28T03:38:23;1.48;;;0.52;;
41480;SDS011;27217;51.220;5.308;2023-07-28T03:40:49;3.10;;;0.90;;
41480;SDS011;27217;51.220;5.308;2023-07-28T03:43:15;0.88;;;0.43;;
41480;SDS011;27217;51.220;5.308;2023-07-28T03:45:41;0.57;;;0.57;;
41480;SDS011;27217;51.220;5.308;2023-07-28T03:48:07;1.02;;;1.02;;
41480;SDS011;27217;51.220;5.308;2023-07-28T03:50:33;1.35;;;1.25;;
41480;SDS011;27217;51.220;5.308;2023-07-28T03:52:58;0.65;;;0.65;;
41480;SDS011;27217;51.220;5.308;2023-07-28T03:55:25;0.80;;;0.80;;
41480;SDS011;27217;51.220;5.308;2023-07-28T03:57:51;1.45;;;1.33;;
41480;SDS011;27217;51.220;5.308;2023-07-28T04:00:17;1.00;;;0.35;;
41480;SDS011;27217;51.220;5.308;2023-07-28T04:02:42;0.30;;;0.30;;
41480;SDS011;27217;51.220;5.308;2023-07-28T04:05:09;0.35;;;0.35;;
41480;SDS011;27217;51.220;5.308;2023-07-28T04:07:35;0.17;;;0.17;;
41480;SDS011;27217;51.220;5.308;2023-07-28T04:10:01;1.13;;;1.08;;
41480;SDS011;27217;51.220;5.308;2023-07-28T04:12:28;1.63;;;1.52;;
41480;SDS011;27217;51.220;5.308;2023-07-28T04:14:53;5.57;;;1.45;;
41480;SDS011;27217;51.220;5.308;2023-07-28T04:17:19;1.83;;;1.73;;
41480;SDS011;27217;51.220;5.308;2023-07-28T04:19:45;0.80;;;0.70;;
41480;SDS011;27217;51.220;5.308;2023-07-28T04:22:11;15.98;;;0.95;;
41480;SDS011;27217;51.220;5.308;2023-07-28T04:24:38;0.05;;;0.05;;
41480;SDS011;27217;51.220;5.308;2023-07-28T04:27:04;0.57;;;0.57;;
41480;SDS011;27217;51.220;5.308;2023-07-28T04:29:30;0.80;;;0.63;;
41480;SDS011;27217;51.220;5.308;2023-07-28T04:31:56;0.40;;;0.40;;
41480;SDS011;27217;51.220;5.308;2023-07-28T04:34:23;0.32;;;0.32;;
41480;SDS011;27217;51.220;5.308;2023-07-28T04:36:48;0.22;;;0.22;;
41480;SDS011;27217;51.220;5.308;2023-07-28T04:39:15;0.50;;;0.50;;
41480;SDS011;27217;51.220;5.308;2023-07-28T04:41:40;0.40;;;0.40;;
41480;SDS011;27217;51.220;5.308;2023-07-28T04:44:07;0.43;;;0.43;;
41480;SDS011;27217;51.220;5.308;2023-07-28T04:46:33;0.47;;;0.47;;
41480;SDS011;27217;51.220;5.308;2023-07-28T04:48:58;0.10;;;0.10;;
41480;SDS011;27217;51.220;5.308;2023-07-28T04:51:24;0.45;;;0.45;;
41480;SDS011;27217;51.220;5.308;2023-07-28T04:53:50;0.00;;;0.00;;
41480;SDS011;27217;51.220;5.308;2023-07-28T04:56:15;0.20;;;0.20;;
41480;SDS011;27217;51.220;5.308;2023-07-28T04:58:42;0.75;;;0.20;;
41480;SDS011;27217;51.220;5.308;2023-07-28T05:01:07;0.00;;;0.00;;
41480;SDS011;27217;51.220;5.308;2023-07-28T05:03:34;0.20;;;0.20;;
41480;SDS011;27217;51.220;5.308;2023-07-28T05:06:00;1.00;;;1.00;;
41480;SDS011;27217;51.220;5.308;2023-07-28T05:08:29;0.10;;;0.10;;
41480;SDS011;27217;51.220;5.308;2023-07-28T05:10:56;0.25;;;0.25;;
41480;SDS011;27217;51.220;5.308;2023-07-28T05:13:21;0.20;;;0.20;;
41480;SDS011;27217;51.220;5.308;2023-07-28T05:15:47;0.00;;;0.00;;
41480;SDS011;27217;51.220;5.308;2023-07-28T05:18:16;0.22;;;0.22;;
41480;SDS011;27217;51.220;5.308;2023-07-28T05:20:42;0.20;;;0.20;;
41480;SDS011;27217;51.220;5.308;2023-07-28T05:23:08;0.85;;;0.85;;
41480;SDS011;27217;51.220;5.308;2023-07-28T05:25:34;0.20;;;0.20;;
41480;SDS011;27217;51.220;5.308;2023-07-28T05:28:00;0.73;;;0.20;;
41480;SDS011;27217;51.220;5.308;2023-07-28T05:30:26;0.00;;;0.00;;
41480;SDS011;27217;51.220;5.308;2023-07-28T05:32:55;0.45;;;0.45;;
41480;SDS011;27217;51.220;5.308;2023-07-28T05:35:21;0.17;;;0.17;;
41480;SDS011;27217;51.220;5.308;2023-07-28T05:37:47;1.17;;;0.70;;
41480;SDS011;27217;51.220;5.308;2023-07-28T05:40:13;0.00;;;0.00;;
41480;SDS011;27217;51.220;5.308;2023-07-28T05:42:38;0.45;;;0.45;;
41480;SDS011;27217;51.220;5.308;2023-07-28T05:45:04;0.32;;;0.32;;
41480;SDS011;27217;51.220;5.308;2023-07-28T05:47:30;0.00;;;0.00;;
41480;SDS011;27217;51.220;5.308;2023-07-28T05:49:56;0.15;;;0.15;;
41480;SDS011;27217;51.220;5.308;2023-07-28T05:52:22;0.47;;;0.47;;
41480;SDS011;27217;51.220;5.308;2023-07-28T05:54:48;0.22;;;0.22;;
41480;SDS011;27217;51.220;5.308;2023-07-28T05:57:14;0.00;;;0.00;;
41480;SDS011;27217;51.220;5.308;2023-07-28T05:59:41;0.00;;;0.00;;
41480;SDS011;27217;51.220;5.308;2023-07-28T06:02:06;0.10;;;0.10;;
41480;SDS011;27217;51.220;5.308;2023-07-28T06:04:32;0.00;;;0.00;;
41480;SDS011;27217;51.220;5.308;2023-07-28T06:06:58;0.20;;;0.20;;
41480;SDS011;27217;51.220;5.308;2023-07-28T06:09:24;0.65;;;0.65;;
41480;SDS011;27217;51.220;5.308;2023-07-28T06:11:50;0.17;;;0.17;;
41480;SDS011;27217;51.220;5.308;2023-07-28T06:14:15;0.00;;;0.00;;
41480;SDS011;27217;51.220;5.308;2023-07-28T06:16:41;0.13;;;0.13;;
41480;SDS011;27217;51.220;5.308;2023-07-28T06:19:07;0.45;;;0.45;;
41480;SDS011;27217;51.220;5.308;2023-07-28T06:21:33;0.00;;;0.00;;
41480;SDS011;27217;51.220;5.308;2023-07-28T06:23:59;1.50;;;0.50;;
41480;SDS011;27217;51.220;5.308;2023-07-28T06:26:25;0.10;;;0.10;;
41480;SDS011;27217;51.220;5.308;2023-07-28T06:28:51;0.03;;;0.03;;
41480;SDS011;27217;51.220;5.308;2023-07-28T06:31:17;0.10;;;0.10;;
41480;SDS011;27217;51.220;5.308;2023-07-28T06:33:43;0.30;;;0.30;;
41480;SDS011;27217;51.220;5.308;2023-07-28T06:36:09;0.10;;;0.10;;
41480;SDS011;27217;51.220;5.308;2023-07-28T06:38:35;0.10;;;0.10;;
41480;SDS011;27217;51.220;5.308;2023-07-28T06:41:01;0.00;;;0.00;;
41480;SDS011;27217;51.220;5.308;2023-07-28T06:43:26;0.52;;;0.52;;
41480;SDS011;27217;51.220;5.308;2023-07-28T06:45:53;0.20;;;0.20;;
41480;SDS011;27217;51.220;5.308;2023-07-28T06:48:20;0.88;;;0.88;;
41480;SDS011;27217;51.220;5.308;2023-07-28T06:50:46;0.15;;;0.15;;
41480;SDS011;27217;51.220;5.308;2023-07-28T06:53:12;0.00;;;0.00;;
41480;SDS011;27217;51.220;5.308;2023-07-28T06:55:37;0.13;;;0.13;;
41480;SDS011;27217;51.220;5.308;2023-07-28T06:58:04;0.00;;;0.00;;
41480;SDS011;27217;51.220;5.308;2023-07-28T07:00:30;0.20;;;0.20;;
41480;SDS011;27217;51.220;5.308;2023-07-28T07:02:56;0.35;;;0.35;;
41480;SDS011;27217;51.220;5.308;2023-07-28T07:05:22;0.15;;;0.15;;
41480;SDS011;27217;51.220;5.308;2023-07-28T07:07:48;0.63;;;0.63;;
41480;SDS011;27217;51.220;5.308;2023-07-28T07:10:14;0.20;;;0.20;;
41480;SDS011;27217;51.220;5.308;2023-07-28T07:12:40;0.77;;;0.75;;
41480;SDS011;27217;51.220;5.308;2023-07-28T07:15:06;0.00;;;0.00;;
41480;SDS011;27217;51.220;5.308;2023-07-28T07:17:32;0.00;;;0.00;;
41480;SDS011;27217;51.220;5.308;2023-07-28T07:19:58;0.00;;;0.00;;
41480;SDS011;27217;51.220;5.308;2023-07-28T07:22:24;0.00;;;0.00;;
41480;SDS011;27217;51.220;5.308;2023-07-28T07:24:49;0.40;;;0.40;;
41480;SDS011;27217;51.220;5.308;2023-07-28T07:27:15;2.53;;;0.93;;
41480;SDS011;27217;51.220;5.308;2023-07-28T07:29:41;0.28;;;0.28;;
41480;SDS011;27217;51.220;5.308;2023-07-28T07:32:07;0.00;;;0.00;;
41480;SDS011;27217;51.220;5.308;2023-07-28T07:34:36;0.32;;;0.32;;
41480;SDS011;27217;51.220;5.308;2023-07-28T07:37:03;0.00;;;0.00;;
41480;SDS011;27217;51.220;5.308;2023-07-28T07:39:29;1.13;;;0.85;;
41480;SDS011;27217;51.220;5.308;2023-07-28T07:41:55;0.00;;;0.00;;
41480;SDS011;27217;51.220;5.308;2023-07-28T07:44:21;0.30;;;0.08;;
41480;SDS011;27217;51.220;5.308;2023-07-28T07:46:47;0.30;;;0.30;;
41480;SDS011;27217;51.220;5.308;2023-07-28T07:49:13;0.10;;;0.10;;
41480;SDS011;27217;51.220;5.308;2023-07-28T07:51:39;0.00;;;0.00;;
41480;SDS011;27217;51.220;5.308;2023-07-28T07:54:06;8.35;;;1.95;;
41480;SDS011;27217;51.220;5.308;2023-07-28T07:56:31;0.00;;;0.00;;
41480;SDS011;27217;51.220;5.308;2023-07-28T07:58:57;0.03;;;0.03;;
41480;SDS011;27217;51.220;5.308;2023-07-28T08:01:23;0.17;;;0.17;;
41480;SDS011;27217;51.220;5.308;2023-07-28T08:03:49;0.08;;;0.08;;
41480;SDS011;27217;51.220;5.308;2023-07-28T08:06:15;0.22;;;0.22;;
41480;SDS011;27217;51.220;5.308;2023-07-28T08:08:40;0.00;;;0.00;;
41480;SDS011;27217;51.220;5.308;2023-07-28T08:11:06;0.10;;;0.10;;
41480;SDS011;27217;51.220;5.308;2023-07-28T08:13:33;0.20;;;0.20;;
41480;SDS011;27217;51.220;5.308;2023-07-28T08:15:58;0.00;;;0.00;;
41480;SDS011;27217;51.220;5.308;2023-07-28T08:18:24;0.00;;;0.00;;
41480;SDS011;27217;51.220;5.308;2023-07-28T08:20:50;0.10;;;0.10;;
41480;SDS011;27217;51.220;5.308;2023-07-28T08:23:16;0.00;;;0.00;;
41480;SDS011;27217;51.220;5.308;2023-07-28T08:25:42;0.00;;;0.00;;
41480;SDS011;27217;51.220;5.308;2023-07-28T08:28:08;0.00;;;0.00;;
41480;SDS011;27217;51.220;5.308;2023-07-28T08:30:34;0.00;;;0.00;;
41480;SDS011;27217;51.220;5.308;2023-07-28T08:33:00;0.22;;;0.22;;
41480;SDS011;27217;51.220;5.308;2023-07-28T08:35:27;0.10;;;0.10;;
41480;SDS011;27217;51.220;5.308;2023-07-28T08:37:52;0.00;;;0.00;;
41480;SDS011;27217;51.220;5.308;2023-07-28T08:40:18;0.08;;;0.08;;
41480;SDS011;27217;51.220;5.308;2023-07-28T08:42:47;0.10;;;0.10;;
41480;SDS011;27217;51.220;5.308;2023-07-28T08:45:14;0.00;;;0.00;;
41480;SDS011;27217;51.220;5.308;2023-07-28T08:47:40;0.00;;;0.00;;
41480;SDS011;27217;51.220;5.308;2023-07-28T08:50:06;0.00;;;0.00;;
41480;SDS011;27217;51.220;5.308;2023-07-28T08:52:32;0.00;;;0.00;;
41480;SDS011;27217;51.220;5.308;2023-07-28T08:54:58;0.00;;;0.00;;
41480;SDS011;27217;51.220;5.308;2023-07-28T08:57:25;0.00;;;0.00;;
41480;SDS011;27217;51.220;5.308;2023-07-28T08:59:50;0.00;;;0.00;;
41480;SDS011;27217;51.220;5.308;2023-07-28T09:02:17;0.10;;;0.10;;
41480;SDS011;27217;51.220;5.308;2023-07-28T09:04:46;0.00;;;0.00;;
41480;SDS011;27217;51.220;5.308;2023-07-28T09:07:13;0.45;;;0.40;;
41480;SDS011;27217;51.220;5.308;2023-07-28T09:09:40;0.50;;;0.50;;
41480;SDS011;27217;51.220;5.308;2023-07-28T09:12:06;0.63;;;0.60;;
41480;SDS011;27217;51.220;5.308;2023-07-28T09:14:34;0.68;;;0.57;;
41480;SDS011;27217;51.220;5.308;2023-07-28T09:17:11;1.88;;;0.80;;
41480;SDS011;27217;51.220;5.308;2023-07-28T09:19:51;0.73;;;0.60;;
41480;SDS011;27217;51.220;5.308;2023-07-28T09:22:18;1.27;;;0.60;;
41480;SDS011;27217;51.220;5.308;2023-07-28T09:24:45;0.63;;;0.60;;
41480;SDS011;27217;51.220;5.308;2023-07-28T09:27:27;0.70;;;0.70;;
41480;SDS011;27217;51.220;5.308;2023-07-28T09:29:55;2.95;;;0.68;;
41480;SDS011;27217;51.220;5.308;2023-07-28T09:32:28;1.05;;;0.60;;
41480;SDS011;27217;51.220;5.308;2023-07-28T09:35:07;3.58;;;0.52;;
41480;SDS011;27217;51.220;5.308;2023-07-28T09:37:38;2.47;;;0.60;;
41480;SDS011;27217;51.220;5.308;2023-07-28T09:40:12;0.60;;;0.60;;
41480;SDS011;27217;51.220;5.308;2023-07-28T09:42:39;1.33;;;0.63;;
41480;SDS011;27217;51.220;5.308;2023-07-28T09:45:07;3.42;;;0.50;;
41480;SDS011;27217;51.220;5.308;2023-07-28T09:47:34;0.63;;;0.50;;
41480;SDS011;27217;51.220;5.308;2023-07-28T09:50:06;2.50;;;0.77;;
41480;SDS011;27217;51.220;5.308;2023-07-28T09:52:34;0.63;;;0.63;;
41480;SDS011;27217;51.220;5.308;2023-07-28T09:55:05;0.73;;;0.60;;
41480;SDS011;27217;51.220;5.308;2023-07-28T09:57:44;1.15;;;0.50;;
41480;SDS011;27217;51.220;5.308;2023-07-28T10:00:14;0.40;;;0.40;;
41480;SDS011;27217;51.220;5.308;2023-07-28T10:02:42;1.40;;;0.57;;
41480;SDS011;27217;51.220;5.308;2023-07-28T10:05:09;0.65;;;0.57;;
41480;SDS011;27217;51.220;5.308;2023-07-28T10:07:35;0.60;;;0.50;;
41480;SDS011;27217;51.220;5.308;2023-07-28T10:10:06;1.45;;;0.57;;
41480;SDS011;27217;51.220;5.308;2023-07-28T10:12:51;0.50;;;0.50;;
41480;SDS011;27217;51.220;5.308;2023-07-28T10:15:20;1.08;;;0.65;;
41480;SDS011;27217;51.220;5.308;2023-07-28T10:17:54;0.98;;;0.85;;
41480;SDS011;27217;51.220;5.308;2023-07-28T10:23:05;2.67;;;0.90;;
41480;SDS011;27217;51.220;5.308;2023-07-28T10:25:33;4.53;;;1.00;;
41480;SDS011;27217;51.220;5.308;2023-07-28T10:28:04;0.60;;;0.50;;
41480;SDS011;27217;51.220;5.308;2023-07-28T10:30:34;1.23;;;0.82;;
41480;SDS011;27217;51.220;5.308;2023-07-28T10:33:26;1.98;;;0.35;;
41480;SDS011;27217;51.220;5.308;2023-07-28T10:35:59;1.65;;;0.45;;
41480;SDS011;27217;51.220;5.308;2023-07-28T10:38:40;0.50;;;0.50;;
41480;SDS011;27217;51.220;5.308;2023-07-28T10:41:12;0.60;;;0.52;;
41480;SDS011;27217;51.220;5.308;2023-07-28T10:43:41;0.40;;;0.40;;
41480;SDS011;27217;51.220;5.308;2023-07-28T10:46:08;1.48;;;0.40;;
41480;SDS011;27217;51.220;5.308;2023-07-28T10:48:36;0.55;;;0.30;;
41480;SDS011;27217;51.220;5.308;2023-07-28T10:51:02;2.13;;;0.40;;
41480;SDS011;27217;51.220;5.308;2023-07-28T10:53:28;2.40;;;0.60;;
41480;SDS011;27217;51.220;5.308;2023-07-28T10:55:56;1.73;;;0.60;;
41480;SDS011;27217;51.220;5.308;2023-07-28T10:58:24;1.13;;;0.50;;
41480;SDS011;27217;51.220;5.308;2023-07-28T11:00:50;2.28;;;0.60;;
41480;SDS011;27217;51.220;5.308;2023-07-28T11:03:17;1.00;;;0.80;;
41480;SDS011;27217;51.220;5.308;2023-07-28T11:05:43;0.45;;;0.45;;
41480;SDS011;27217;51.220;5.308;2023-07-28T11:08:14;0.77;;;0.60;;
41480;SDS011;27217;51.220;5.308;2023-07-28T11:10:40;0.80;;;0.40;;
41480;SDS011;27217;51.220;5.308;2023-07-28T11:13:06;2.05;;;0.70;;
41480;SDS011;27217;51.220;5.308;2023-07-28T11:15:32;1.60;;;0.70;;
41480;SDS011;27217;51.220;5.308;2023-07-28T11:17:58;1.13;;;0.73;;
41480;SDS011;27217;51.220;5.308;2023-07-28T11:20:26;1.85;;;0.50;;
41480;SDS011;27217;51.220;5.308;2023-07-28T11:22:56;2.88;;;0.50;;
41480;SDS011;27217;51.220;5.308;2023-07-28T11:25:24;0.75;;;0.47;;
41480;SDS011;27217;51.220;5.308;2023-07-28T11:27:51;0.77;;;0.60;;
41480;SDS011;27217;51.220;5.308;2023-07-28T11:30:17;0.95;;;0.68;;
41480;SDS011;27217;51.220;5.308;2023-07-28T11:32:45;1.83;;;0.70;;
41480;SDS011;27217;51.220;5.308;2023-07-28T11:35:13;1.63;;;0.70;;
41480;SDS011;27217;51.220;5.308;2023-07-28T11:37:41;1.17;;;0.60;;
41480;SDS011;27217;51.220;5.308;2023-07-28T11:40:10;0.50;;;0.50;;
41480;SDS011;27217;51.220;5.308;2023-07-28T11:42:41;3.33;;;0.73;;
41480;SDS011;27217;51.220;5.308;2023-07-28T11:45:10;0.80;;;0.80;;
41480;SDS011;27217;51.220;5.308;2023-07-28T11:47:37;0.90;;;0.63;;
41480;SDS011;27217;51.220;5.308;2023-07-28T11:50:06;1.73;;;0.68;;
41480;SDS011;27217;51.220;5.308;2023-07-28T11:52:32;2.38;;;0.65;;
41480;SDS011;27217;51.220;5.308;2023-07-28T11:55:19;0.88;;;0.40;;
41480;SDS011;27217;51.220;5.308;2023-07-28T11:57:46;0.47;;;0.47;;
41480;SDS011;27217;51.220;5.308;2023-07-28T12:00:13;0.52;;;0.50;;
41480;SDS011;27217;51.220;5.308;2023-07-28T12:02:42;0.77;;;0.68;;
41480;SDS011;27217;51.220;5.308;2023-07-28T12:05:14;1.75;;;0.50;;
41480;SDS011;27217;51.220;5.308;2023-07-28T12:07:41;0.35;;;0.32;;
41480;SDS011;27217;51.220;5.308;2023-07-28T12:10:12;0.70;;;0.50;;
41480;SDS011;27217;51.220;5.308;2023-07-28T12:12:45;1.88;;;0.68;;
41480;SDS011;27217;51.220;5.308;2023-07-28T12:15:18;1.17;;;0.50;;
41480;SDS011;27217;51.220;5.308;2023-07-28T12:20:54;1.35;;;0.63;;
41480;SDS011;27217;51.220;5.308;2023-07-28T12:23:20;1.63;;;0.70;;
41480;SDS011;27217;51.220;5.308;2023-07-28T12:25:48;1.10;;;0.40;;
41480;SDS011;27217;51.220;5.308;2023-07-28T12:28:15;2.30;;;0.65;;
41480;SDS011;27217;51.220;5.308;2023-07-28T12:30:40;0.68;;;0.65;;
41480;SDS011;27217;51.220;5.308;2023-07-28T12:33:06;1.67;;;0.70;;
41480;SDS011;27217;51.220;5.308;2023-07-28T12:35:33;1.00;;;0.80;;
41480;SDS011;27217;51.220;5.308;2023-07-28T12:38:03;2.08;;;1.08;;
41480;SDS011;27217;51.220;5.308;2023-07-28T12:40:30;0.47;;;0.47;;
41480;SDS011;27217;51.220;5.308;2023-07-28T12:42:56;1.52;;;0.90;;
41480;SDS011;27217;51.220;5.308;2023-07-28T12:45:23;4.40;;;1.83;;
41480;SDS011;27217;51.220;5.308;2023-07-28T12:47:51;1.60;;;0.77;;
41480;SDS011;27217;51.220;5.308;2023-07-28T12:50:18;6.18;;;1.30;;
41480;SDS011;27217;51.220;5.308;2023-07-28T12:52:46;1.95;;;0.90;;
41480;SDS011;27217;51.220;5.308;2023-07-28T12:55:13;1.42;;;0.70;;
41480;SDS011;27217;51.220;5.308;2023-07-28T12:57:40;1.85;;;0.40;;
41480;SDS011;27217;51.220;5.308;2023-07-28T13:00:06;0.80;;;0.60;;
41480;SDS011;27217;51.220;5.308;2023-07-28T13:02:40;4.43;;;1.73;;
41480;SDS011;27217;51.220;5.308;2023-07-28T13:05:07;5.97;;;2.17;;
41480;SDS011;27217;51.220;5.308;2023-07-28T13:07:35;21.45;;;5.38;;
41480;SDS011;27217;51.220;5.308;2023-07-28T13:10:02;24.00;;;5.78;;
41480;SDS011;27217;51.220;5.308;2023-07-28T13:12:29;13.77;;;3.17;;
41480;SDS011;27217;51.220;5.308;2023-07-28T13:14:55;18.92;;;4.93;;
41480;SDS011;27217;51.220;5.308;2023-07-28T13:17:21;8.65;;;2.80;;
41480;SDS011;27217;51.220;5.308;2023-07-28T13:19:47;10.73;;;2.75;;
41480;SDS011;27217;51.220;5.308;2023-07-28T13:22:13;4.70;;;1.20;;
41480;SDS011;27217;51.220;5.308;2023-07-28T13:24:38;6.38;;;1.80;;
41480;SDS011;27217;51.220;5.308;2023-07-28T13:27:04;3.50;;;1.25;;
41480;SDS011;27217;51.220;5.308;2023-07-28T13:29:30;1.00;;;0.85;;
41480;SDS011;27217;51.220;5.308;2023-07-28T13:31:57;0.95;;;0.65;;
41480;SDS011;27217;51.220;5.308;2023-07-28T13:34:25;1.90;;;0.80;;
41480;SDS011;27217;51.220;5.308;2023-07-28T13:36:52;1.10;;;0.60;;
41480;SDS011;27217;51.220;5.308;2023-07-28T13:39:21;0.95;;;0.70;;
41480;SDS011;27217;51.220;5.308;2023-07-28T13:41:47;1.95;;;0.77;;
41480;SDS011;27217;51.220;5.308;2023-07-28T13:44:13;3.72;;;0.55;;
41480;SDS011;27217;51.220;5.308;2023-07-28T13:46:40;2.85;;;0.80;;
41480;SDS011;27217;51.220;5.308;2023-07-28T13:49:05;2.67;;;1.17;;
41480;SDS011;27217;51.220;5.308;2023-07-28T13:51:31;5.97;;;1.85;;
41480;SDS011;27217;51.220;5.308;2023-07-28T13:53:57;2.13;;;1.10;;
41480;SDS011;27217;51.220;5.308;2023-07-28T13:56:23;9.23;;;2.88;;
41480;SDS011;27217;51.220;5.308;2023-07-28T13:58:49;7.00;;;2.40;;
41480;SDS011;27217;51.220;5.308;2023-07-28T14:01:14;6.93;;;2.22;;
41480;SDS011;27217;51.220;5.308;2023-07-28T14:03:40;4.72;;;1.50;;
41480;SDS011;27217;51.220;5.308;2023-07-28T14:06:06;8.43;;;2.83;;
41480;SDS011;27217;51.220;5.308;2023-07-28T14:08:32;2.97;;;1.20;;
41480;SDS011;27217;51.220;5.308;2023-07-28T14:10:58;1.73;;;1.20;;
41480;SDS011;27217;51.220;5.308;2023-07-28T14:13:24;2.63;;;0.80;;
41480;SDS011;27217;51.220;5.308;2023-07-28T14:15:50;0.95;;;0.85;;
41480;SDS011;27217;51.220;5.308;2023-07-28T14:18:16;1.50;;;1.10;;
41480;SDS011;27217;51.220;5.308;2023-07-28T14:20:42;1.20;;;1.10;;
41480;SDS011;27217;51.220;5.308;2023-07-28T14:23:24;0.93;;;0.93;;
41480;SDS011;27217;51.220;5.308;2023-07-28T14:25:51;1.30;;;1.20;;
41480;SDS011;27217;51.220;5.308;2023-07-28T14:28:17;2.30;;;1.52;;
41480;SDS011;27217;51.220;5.308;2023-07-28T14:30:43;1.83;;;1.20;;
41480;SDS011;27217;51.220;5.308;2023-07-28T14:33:16;3.58;;;1.80;;
41480;SDS011;27217;51.220;5.308;2023-07-28T14:35:43;8.30;;;2.13;;
41480;SDS011;27217;51.220;5.308;2023-07-28T14:38:10;2.50;;;1.75;;
41480;SDS011;27217;51.220;5.308;2023-07-28T14:40:37;1.85;;;1.38;;
41480;SDS011;27217;51.220;5.308;2023-07-28T14:43:03;20.58;;;6.20;;
41480;SDS011;27217;51.220;5.308;2023-07-28T14:45:29;13.07;;;4.03;;
41480;SDS011;27217;51.220;5.308;2023-07-28T14:47:55;12.38;;;5.03;;
41480;SDS011;27217;51.220;5.308;2023-07-28T14:50:22;10.23;;;3.00;;
41480;SDS011;27217;51.220;5.308;2023-07-28T14:52:48;31.73;;;9.00;;
41480;SDS011;27217;51.220;5.308;2023-07-28T14:55:14;7.22;;;2.17;;
41480;SDS011;27217;51.220;5.308;2023-07-28T14:57:41;3.40;;;1.40;;